Time;durP1;ratioP1;P1;durP2;ratioP2;P2;SDS_P1;SDS_P2;PMS_P1;PMS_P2;Temp;Humidity;BMP_temperature;BMP_pressure;BME280_temperature;BME280_humidity;BME280_pressure;Samples;Min_cycle;Max_cycle;Signal;HPM_P1;HPM_P2
2022/09/07 00:00:35;;;;;;;0.38;0.30;;;;;;;26.79;47.06;99187.00;5145687;27;20518;-58
2022/09/07 00:03:02;;;;;;;0.60;0.30;;;;;;;26.91;46.68;99191.22;5141519;27;20395;-58
2022/09/07 00:05:29;;;;;;;0.55;0.40;;;;;;;26.96;45.90;99192.78;5143481;27;20067;-58
2022/09/07 00:07:55;;;;;;;0.45;0.32;;;;;;;26.88;46.26;99189.28;5138678;27;20042;-58
2022/09/07 00:10:22;;;;;;;0.30;0.30;;;;;;;26.78;47.25;99190.19;5147902;27;20031;-58
2022/09/07 00:12:48;;;;;;;0.40;0.20;;;;;;;26.86;47.01;99189.69;5147312;27;20168;-58
2022/09/07 00:15:13;;;;;;;0.20;0.20;;;;;;;26.93;46.53;99185.97;5149009;27;20046;-58
2022/09/07 00:17:39;;;;;;;0.30;0.30;;;;;;;26.92;46.89;99175.19;5149594;27;20027;-48
2022/09/07 00:20:06;;;;;;;0.30;0.30;;;;;;;27.00;46.91;99180.25;5149846;27;20054;-58
2022/09/07 00:22:32;;;;;;;0.20;0.20;;;;;;;26.98;46.13;99190.34;5146173;27;20067;-58
2022/09/07 00:24:57;;;;;;;0.20;0.20;;;;;;;26.85;46.96;99185.28;5135738;27;20533;-48
2022/09/07 00:27:23;;;;;;;0.35;0.30;;;;;;;26.84;47.18;99192.13;5137171;27;20511;-58
2022/09/07 00:29:48;;;;;;;0.40;0.25;;;;;;;26.89;47.20;99193.66;5132848;27;20604;-48
2022/09/07 00:32:14;;;;;;;0.47;0.40;;;;;;;26.97;46.94;99197.16;5131962;27;20180;-58
2022/09/07 00:34:40;;;;;;;0.50;0.30;;;;;;;26.97;45.87;99195.16;5145703;27;20085;-58
2022/09/07 00:37:06;;;;;;;0.28;0.28;;;;;;;26.89;47.03;99200.06;5136156;27;20081;-47
2022/09/07 00:39:32;;;;;;;1.00;0.30;;;;;;;26.83;47.30;99198.94;5141718;27;20047;-58
2022/09/07 00:41:58;;;;;;;0.57;0.40;;;;;;;26.85;47.40;99193.69;5132558;27;20031;-48
2022/09/07 00:44:42;;;;;;;0.20;0.20;;;;;;;26.95;47.16;99189.19;5138432;27;20066;-47
2022/09/07 00:47:14;;;;;;;0.35;0.30;;;;;;;26.95;46.01;99191.19;5132910;27;20491;-58
2022/09/07 00:49:41;;;;;;;0.82;0.50;;;;;;;26.81;46.38;99186.56;5134662;27;20082;-58
2022/09/07 00:52:09;;;;;;;1.00;0.32;;;;;;;26.72;47.76;99187.09;5146597;27;20046;-47
2022/09/07 00:54:44;;;;;;;0.30;0.30;;;;;;;26.76;47.55;99185.00;5145602;27;20039;-47
2022/09/07 00:57:10;;;;;;;0.60;0.40;;;;;;;26.86;47.58;99189.69;5134753;27;20087;-50
2022/09/07 00:59:41;;;;;;;1.05;0.43;;;;;;;26.96;47.21;99181.53;5125145;27;20539;-48
2022/09/07 01:02:07;;;;;;;0.28;0.22;;;;;;;26.95;46.52;99183.56;5134935;27;20047;-58
2022/09/07 01:04:33;;;;;;;0.93;0.40;;;;;;;26.82;47.25;99186.13;5135506;27;20495;-48
2022/09/07 01:07:01;;;;;;;0.20;0.20;;;;;;;26.78;47.65;99185.38;5139672;27;20034;-59
2022/09/07 01:09:28;;;;;;;0.75;0.38;;;;;;;26.83;47.49;99187.72;5146363;27;20046;-58
2022/09/07 01:11:56;;;;;;;0.32;0.30;;;;;;;26.93;47.34;99179.56;5135658;27;20043;-58
2022/09/07 01:14:36;;;;;;;0.40;0.40;;;;;;;26.91;45.78;99193.25;5132031;27;20051;-58
2022/09/07 01:17:23;;;;;;;0.43;0.20;;;;;;;26.76;47.17;99187.81;5135824;27;20035;-58
2022/09/07 01:20:22;;;;;;;0.60;0.40;;;;;;;26.75;47.55;99179.81;5134969;27;20130;-58
2022/09/07 01:23:31;;;;;;;0.38;0.30;;;;;;;26.85;47.61;99178.88;5140140;27;20077;-49
2022/09/07 01:26:15;;;;;;;0.80;0.40;;;;;;;26.94;47.42;99175.56;5150352;27;20050;-58
2022/09/07 01:28:42;;;;;;;0.43;0.30;;;;;;;26.95;47.09;99161.09;5129883;27;20055;-58
2022/09/07 01:31:27;;;;;;;0.30;0.30;;;;;;;26.97;46.92;99149.44;5143633;27;20441;-58
2022/09/07 01:34:01;;;;;;;0.40;0.30;;;;;;;26.88;46.61;99161.22;5131366;27;20034;-58
2022/09/07 01:36:56;;;;;;;0.50;0.30;;;;;;;26.79;47.45;99164.53;5142370;27;20137;-47
2022/09/07 01:39:37;;;;;;;0.52;0.20;;;;;;;26.84;46.96;99166.84;5131104;27;20130;-58
2022/09/07 01:42:12;;;;;;;0.40;0.30;;;;;;;26.97;47.19;99169.09;5107227;28;20499;-58
2022/09/07 01:44:58;;;;;;;0.43;0.30;;;;;;;26.97;46.96;99172.69;5100282;28;20043;-58
2022/09/07 01:47:46;;;;;;;1.13;0.28;;;;;;;27.03;46.58;99173.03;5093968;28;20508;-49
2022/09/07 01:50:53;;;;;;;0.38;0.35;;;;;;;26.98;46.03;99170.69;5094267;28;20040;-58
2022/09/07 01:53:30;;;;;;;0.50;0.30;;;;;;;26.78;47.40;99171.34;5083565;28;20039;-48
2022/09/07 01:56:20;;;;;;;0.30;0.30;;;;;;;26.79;47.80;99170.16;5093792;28;20048;-58
2022/09/07 01:58:53;;;;;;;0.63;0.30;;;;;;;26.92;47.25;99173.16;5095833;28;20044;-47
2022/09/07 02:01:31;;;;;;;0.73;0.30;;;;;;;26.96;47.25;99173.13;5109338;28;20040;-58
2022/09/07 02:04:12;;;;;;;0.38;0.30;;;;;;;26.98;46.04;99168.66;5090346;28;20087;-47
2022/09/07 02:06:59;;;;;;;0.32;0.30;;;;;;;26.84;48.10;99177.28;5092940;28;20514;-58
2022/09/07 02:09:38;;;;;;;0.55;0.40;;;;;;;26.84;48.14;99169.66;5087218;28;20550;-48
2022/09/07 02:12:13;;;;;;;0.60;0.40;;;;;;;26.93;47.63;99183.16;5097811;28;20047;-58
2022/09/07 02:14:43;;;;;;;0.55;0.30;;;;;;;26.98;46.67;99185.50;5098206;28;20149;-58
2022/09/07 02:17:16;;;;;;;0.30;0.30;;;;;;;26.87;46.38;99182.88;5096538;28;20059;-48
2022/09/07 02:19:49;;;;;;;0.63;0.32;;;;;;;26.73;48.03;99176.66;5098009;28;20111;-58
2022/09/07 02:22:17;;;;;;;0.57;0.45;;;;;;;26.77;48.16;99174.59;5098542;28;20044;-48
2022/09/07 02:24:48;;;;;;;0.32;0.30;;;;;;;26.81;48.33;99184.56;5102329;28;20036;-58
2022/09/07 02:27:19;;;;;;;0.47;0.32;;;;;;;26.87;48.22;99182.88;5098475;28;20470;-48
2022/09/07 02:29:45;;;;;;;0.60;0.40;;;;;;;26.96;47.29;99175.94;5091805;28;20044;-51
2022/09/07 02:32:10;;;;;;;0.95;0.50;;;;;;;26.90;46.52;99170.00;5099725;28;20085;-51
2022/09/07 02:34:36;;;;;;;0.22;0.20;;;;;;;26.77;48.04;99168.97;5101043;28;20048;-48
2022/09/07 02:37:05;;;;;;;0.38;0.30;;;;;;;26.74;48.21;99159.41;5100730;28;20040;-58
2022/09/07 02:39:30;;;;;;;0.30;0.30;;;;;;;26.81;48.51;99142.47;5101824;28;20131;-48
2022/09/07 02:41:56;;;;;;;0.50;0.30;;;;;;;26.89;48.07;99138.31;5090355;28;20040;-48
2022/09/07 02:44:25;;;;;;;0.40;0.38;;;;;;;26.92;46.83;99138.69;5094347;28;20071;-52
2022/09/07 02:47:26;;;;;;;0.30;0.28;;;;;;;26.72;48.15;99130.97;5091903;28;20051;-48
2022/09/07 02:50:12;;;;;;;0.65;0.40;;;;;;;26.69;48.68;99134.59;5040863;28;20131;-48
2022/09/07 02:52:46;;;;;;;0.38;0.30;;;;;;;26.77;48.73;99122.06;5046893;28;20445;-48
2022/09/07 02:55:33;;;;;;;0.80;0.40;;;;;;;26.86;48.44;99113.94;5042289;28;20041;-58
2022/09/07 02:58:07;;;;;;;0.30;0.30;;;;;;;26.95;48.25;99104.19;5038882;28;20053;-47
2022/09/07 03:00:43;;;;;;;0.75;0.40;;;;;;;26.95;48.19;99101.38;5033801;28;20041;-58
2022/09/07 03:03:25;;;;;;;0.98;0.30;;;;;;;26.99;48.38;99107.72;5045312;28;20049;-58
2022/09/07 03:06:03;;;;;;;0.30;0.30;;;;;;;26.88;48.44;99108.69;5049549;28;20041;-58
2022/09/07 03:08:35;;;;;;;0.30;0.30;;;;;;;26.84;48.75;99113.53;5049613;28;20056;-58
2022/09/07 03:11:03;;;;;;;0.57;0.40;;;;;;;26.86;48.79;99113.94;5049095;28;20489;-58
2022/09/07 03:13:29;;;;;;;0.85;0.40;;;;;;;26.91;48.94;99112.63;5044722;28;20051;-58
2022/09/07 03:15:55;;;;;;;0.50;0.35;;;;;;;26.99;48.79;99110.50;5039942;28;20037;-58
2022/09/07 03:18:21;;;;;;;0.25;0.22;;;;;;;27.02;48.83;99118.09;5044869;28;20206;-48
2022/09/07 03:20:47;;;;;;;0.38;0.30;;;;;;;27.05;48.76;99114.47;5040633;28;20037;-58
2022/09/07 03:23:13;;;;;;;0.28;0.28;;;;;;;27.00;48.54;99109.28;5043635;28;20064;-58
2022/09/07 03:25:38;;;;;;;0.40;0.30;;;;;;;26.88;48.48;99105.88;5057136;28;20063;-58
2022/09/07 03:28:05;;;;;;;0.35;0.30;;;;;;;26.77;49.58;99098.81;5095371;28;20043;-58
2022/09/07 03:30:30;;;;;;;0.43;0.38;;;;;;;26.77;49.77;99096.81;5102688;28;20040;-49
2022/09/07 03:32:56;;;;;;;0.38;0.30;;;;;;;26.82;49.81;99085.13;5104136;28;20176;-58
2022/09/07 03:35:21;;;;;;;0.20;0.20;;;;;;;26.93;49.34;99093.34;5097770;28;20093;-49
2022/09/07 03:37:47;;;;;;;0.45;0.40;;;;;;;26.97;49.22;99096.13;5098041;28;20040;-50
2022/09/07 03:40:14;;;;;;;0.47;0.30;;;;;;;26.94;48.08;99099.78;5093734;28;20055;-50
2022/09/07 03:42:40;;;;;;;0.30;0.30;;;;;;;26.78;49.61;99098.38;5094006;28;20055;-48
2022/09/07 03:45:06;;;;;;;0.28;0.20;;;;;;;26.71;50.22;99094.88;5094582;28;20373;-48
2022/09/07 03:47:36;;;;;;;0.73;0.30;;;;;;;26.75;49.85;99085.22;5091139;28;20036;-58
2022/09/07 03:50:03;;;;;;;0.25;0.25;;;;;;;26.83;49.89;99083.88;5091301;28;20066;-51
2022/09/07 03:52:29;;;;;;;0.55;0.40;;;;;;;26.89;49.32;99073.78;5092799;28;20052;-48
2022/09/07 03:54:54;;;;;;;0.22;0.22;;;;;;;26.94;48.16;99074.53;5103848;28;20112;-48
2022/09/07 03:57:20;;;;;;;0.50;0.30;;;;;;;26.79;48.96;99069.13;5097834;28;20453;-48
2022/09/07 03:59:46;;;;;;;0.50;0.40;;;;;;;26.74;49.74;99071.63;5098848;28;20052;-51
2022/09/07 04:02:12;;;;;;;0.32;0.20;;;;;;;26.75;49.86;99068.38;5110213;28;20511;-58
2022/09/07 04:04:38;;;;;;;0.40;0.32;;;;;;;26.78;49.12;99055.50;5100261;28;20127;-58
2022/09/07 04:07:05;;;;;;;0.20;0.20;;;;;;;26.81;49.41;99047.03;5091016;28;20385;-58
2022/09/07 04:09:30;;;;;;;0.30;0.30;;;;;;;26.85;49.26;99044.97;5099833;28;20535;-59
2022/09/07 04:11:56;;;;;;;0.28;0.20;;;;;;;26.92;48.69;99038.44;5096265;28;20051;-59
2022/09/07 04:14:21;;;;;;;0.20;0.20;;;;;;;26.85;47.83;99038.56;5098341;28;20043;-48
2022/09/07 04:16:47;;;;;;;1.27;0.40;;;;;;;26.69;49.42;99030.78;5093543;28;20032;-58
2022/09/07 04:19:13;;;;;;;0.30;0.30;;;;;;;26.69;49.67;99030.00;5093376;28;20046;-51
2022/09/07 04:21:38;;;;;;;0.47;0.30;;;;;;;26.76;49.38;99035.50;5092981;28;20048;-48
2022/09/07 04:24:04;;;;;;;0.47;0.30;;;;;;;26.75;49.44;99023.47;5102604;28;20039;-47
2022/09/07 04:26:32;;;;;;;0.32;0.30;;;;;;;26.82;49.30;99011.34;5107806;28;20039;-48
2022/09/07 04:28:59;;;;;;;0.40;0.30;;;;;;;26.92;48.89;99018.78;5107586;28;20052;-51
2022/09/07 04:31:25;;;;;;;0.22;0.20;;;;;;;26.94;48.44;99007.97;5093614;28;20044;-48
2022/09/07 04:33:51;;;;;;;0.77;0.43;;;;;;;26.84;47.44;99008.91;5093130;28;20040;-58
2022/09/07 04:36:18;;;;;;;0.22;0.22;;;;;;;26.70;49.23;99034.38;5103701;28;20043;-47
2022/09/07 04:38:44;;;;;;;0.70;0.45;;;;;;;26.73;49.50;99048.38;5101460;28;20071;-49
2022/09/07 04:41:12;;;;;;;0.30;0.30;;;;;;;26.76;49.34;99047.50;5093803;28;20077;-50
2022/09/07 04:43:39;;;;;;;0.77;0.35;;;;;;;26.84;49.20;99034.16;5094288;28;20040;-52
2022/09/07 04:46:07;;;;;;;0.30;0.30;;;;;;;26.93;49.31;99042.84;5094141;28;20123;-58
2022/09/07 04:48:33;;;;;;;0.60;0.30;;;;;;;26.91;48.35;99055.72;5094302;28;20054;-47
2022/09/07 04:51:06;;;;;;;0.57;0.30;;;;;;;26.76;49.51;99074.78;5110631;28;20043;-49
2022/09/07 04:53:33;;;;;;;0.40;0.30;;;;;;;26.72;49.50;99074.84;5110179;28;20039;-49
2022/09/07 04:55:58;;;;;;;0.73;0.50;;;;;;;26.78;49.59;99089.97;5110611;28;20478;-58
2022/09/07 04:58:24;;;;;;;0.63;0.40;;;;;;;26.88;49.26;99077.81;5095874;28;20097;-50
2022/09/07 05:00:49;;;;;;;0.52;0.40;;;;;;;26.95;48.70;99078.91;5110190;28;20055;-48
2022/09/07 05:03:15;;;;;;;0.70;0.40;;;;;;;26.83;48.64;99075.47;5097006;28;20043;-58
2022/09/07 05:05:40;;;;;;;0.70;0.38;;;;;;;26.81;49.07;99074.31;5108829;28;20044;-51
2022/09/07 05:08:06;;;;;;;0.73;0.40;;;;;;;26.85;49.22;99073.03;5110414;28;20077;-58
2022/09/07 05:10:31;;;;;;;0.30;0.20;;;;;;;26.89;49.09;99072.97;5093898;28;20040;-58
2022/09/07 05:12:57;;;;;;;1.17;0.30;;;;;;;26.89;48.85;99078.59;5106265;28;20079;-51
2022/09/07 05:15:22;;;;;;;1.27;0.40;;;;;;;26.88;49.06;99077.81;5093298;28;20040;-58
2022/09/07 05:17:49;;;;;;;0.47;0.30;;;;;;;26.99;48.67;99079.63;5100053;28;20526;-52
2022/09/07 05:20:15;;;;;;;0.22;0.20;;;;;;;27.01;48.39;99068.81;5104713;28;20045;-47
2022/09/07 05:22:40;;;;;;;1.05;0.40;;;;;;;26.93;48.45;99059.66;5097189;28;20043;-48
2022/09/07 05:25:07;;;;;;;18.85;2.05;;;;;;;26.82;49.72;99065.47;5096982;28;20504;-59
2022/09/07 05:27:33;;;;;;;28.00;1.77;;;;;;;26.85;49.71;99061.00;5095689;28;20089;-47
2022/09/07 05:29:58;;;;;;;24.30;1.80;;;;;;;26.87;49.87;99065.00;5089693;28;20036;-51
2022/09/07 05:32:24;;;;;;;14.65;1.20;;;;;;;26.94;49.42;99060.50;5089586;28;20089;-58
2022/09/07 05:34:49;;;;;;;12.95;1.25;;;;;;;26.99;49.05;99066.41;5099740;28;20047;-48
2022/09/07 05:37:15;;;;;;;19.63;1.85;;;;;;;26.96;48.59;99070.06;5089183;28;20040;-47
2022/09/07 05:39:40;;;;;;;12.27;1.27;;;;;;;26.90;49.41;99060.53;5096549;28;20181;-58
2022/09/07 05:42:06;;;;;;;5.60;0.90;;;;;;;26.90;49.26;99074.56;5089806;28;20039;-58
2022/09/07 05:44:31;;;;;;;11.68;1.55;;;;;;;26.99;48.98;99071.22;5093330;28;20138;-47
2022/09/07 05:46:57;;;;;;;6.28;0.93;;;;;;;27.07;48.65;99072.72;5093496;28;20064;-48
2022/09/07 05:49:22;;;;;;;8.23;1.27;;;;;;;27.03;48.26;99080.38;5093297;28;20044;-49
2022/09/07 05:51:48;;;;;;;4.03;0.80;;;;;;;26.92;48.53;99090.97;5103852;28;20048;-52
2022/09/07 05:54:13;;;;;;;5.43;1.00;;;;;;;26.89;48.84;99103.84;5089375;28;20047;-51
2022/09/07 05:56:39;;;;;;;4.38;1.00;;;;;;;26.91;48.83;99097.81;5100588;28;20079;-49
2022/09/07 05:59:04;;;;;;;4.07;0.88;;;;;;;27.01;48.66;99116.53;5104359;28;20445;-47
2022/09/07 06:01:30;;;;;;;4.90;0.80;;;;;;;27.05;48.43;99118.06;5106493;28;20043;-48
2022/09/07 06:03:56;;;;;;;2.35;0.73;;;;;;;27.08;48.23;99122.06;5103259;28;20032;-58
2022/09/07 06:06:22;;;;;;;2.42;0.80;;;;;;;27.17;47.90;99119.50;5098425;28;20081;-58
2022/09/07 06:08:49;;;;;;;4.30;0.70;;;;;;;27.20;47.90;99110.22;5092480;28;20040;-58
2022/09/07 06:11:23;;;;;;;3.35;0.68;;;;;;;27.26;47.58;99118.94;5109411;28;20055;-58
2022/09/07 06:13:50;;;;;;;2.90;0.80;;;;;;;27.28;47.40;99122.91;5108595;28;20077;-59
2022/09/07 06:16:17;;;;;;;3.42;0.63;;;;;;;27.30;47.13;99130.94;5106639;28;20166;-58
2022/09/07 06:18:45;;;;;;;1.80;0.60;;;;;;;27.31;47.10;99133.31;5088871;28;20032;-52
2022/09/07 06:21:14;;;;;;;1.08;0.63;;;;;;;27.36;46.87;99127.22;5088864;28;20516;-58
2022/09/07 06:23:41;;;;;;;2.78;0.50;;;;;;;27.40;46.72;99124.34;5101822;28;20123;-58
2022/09/07 06:26:08;;;;;;;1.42;0.60;;;;;;;27.45;46.97;99128.69;5102523;28;20060;-47
2022/09/07 06:28:39;;;;;;;1.00;0.40;;;;;;;27.45;46.91;99135.09;5095087;28;20043;-50
2022/09/07 06:31:18;;;;;;;1.73;0.57;;;;;;;27.47;46.74;99129.03;5095938;28;20040;-58
2022/09/07 06:33:46;;;;;;;1.55;0.57;;;;;;;27.48;46.74;99110.94;5088965;28;20047;-51
2022/09/07 06:36:13;;;;;;;1.05;0.57;;;;;;;27.46;46.65;99121.84;5088511;28;20072;-51
2022/09/07 06:38:39;;;;;;;2.75;0.70;;;;;;;27.54;46.43;99124.09;5096816;28;20097;-58
2022/09/07 06:41:13;;;;;;;1.58;0.60;;;;;;;27.51;46.53;99129.78;5097354;28;20402;-58
2022/09/07 06:43:39;;;;;;;3.78;0.47;;;;;;;27.52;46.44;99120.13;5090727;28;20067;-58
2022/09/07 06:46:05;;;;;;;2.20;0.60;;;;;;;27.52;46.17;99122.94;5112153;28;20124;-55
2022/09/07 06:48:31;;;;;;;1.35;0.50;;;;;;;27.50;46.29;99133.78;5100883;27;20035;-58
2022/09/07 06:51:11;;;;;;;5.15;0.75;;;;;;;27.53;46.50;99133.75;5095762;28;20047;-56
2022/09/07 06:53:36;;;;;;;7.00;1.58;;;;;;;27.50;47.60;99133.78;5105769;28;20419;-60
2022/09/07 06:56:08;;;;;;;10.82;1.48;;;;;;;27.31;47.98;99129.72;5110268;28;20035;-59
2022/09/07 06:58:34;;;;;;;12.85;4.28;;;;;;;27.21;48.50;99130.66;5109693;27;20059;-56
2022/09/07 07:01:06;;;;;;;27.65;19.35;;;;;;;27.10;49.03;99139.25;5097768;28;20040;-52
2022/09/07 07:03:32;;;;;;;22.20;15.07;;;;;;;27.09;49.01;99138.47;5084582;28;20055;-49
2022/09/07 07:05:58;;;;;;;18.23;11.85;;;;;;;27.11;48.95;99135.22;5103730;28;20032;-58
2022/09/07 07:08:24;;;;;;;16.42;7.78;;;;;;;27.04;48.88;99136.13;5108674;28;20055;-56
2022/09/07 07:10:51;;;;;;;10.60;5.28;;;;;;;26.97;49.18;99135.41;5095707;28;20055;-56
2022/09/07 07:13:17;;;;;;;11.23;3.70;;;;;;;26.94;48.75;99139.88;5088109;28;20051;-62
2022/09/07 07:15:43;;;;;;;9.35;3.53;;;;;;;26.85;48.74;99140.38;5094706;28;20031;-58
2022/09/07 07:18:09;;;;;;;12.63;2.90;;;;;;;26.80;49.10;99140.09;5089977;28;20043;-57
2022/09/07 07:20:36;;;;;;;11.60;2.95;;;;;;;26.74;49.02;99136.94;5090633;28;20564;-57
2022/09/07 07:23:03;;;;;;;9.48;2.38;;;;;;;26.73;49.27;99142.97;5095486;28;20118;-58
2022/09/07 07:25:28;;;;;;;14.23;2.60;;;;;;;26.71;49.14;99139.78;5093677;28;20048;-57
2022/09/07 07:27:54;;;;;;;11.63;2.50;;;;;;;26.70;49.23;99127.78;5101558;28;20052;-58
2022/09/07 07:30:19;;;;;;;16.83;2.70;;;;;;;26.71;49.42;99120.94;5102725;28;20453;-58
2022/09/07 07:32:45;;;;;;;15.40;2.78;;;;;;;26.69;49.44;99123.38;5104567;28;20040;-58
2022/09/07 07:35:11;;;;;;;20.38;2.97;;;;;;;26.72;49.36;99119.75;5099823;28;20040;-58
2022/09/07 07:37:36;;;;;;;14.20;2.67;;;;;;;26.68;49.36;99121.00;5104543;28;20043;-56
2022/09/07 07:40:04;;;;;;;17.25;2.75;;;;;;;26.64;49.15;99115.44;5107778;27;20042;-56
2022/09/07 07:42:29;;;;;;;13.75;2.17;;;;;;;26.68;49.32;99109.78;5104899;28;20040;-57
2022/09/07 07:44:54;;;;;;;7.47;1.92;;;;;;;26.66;49.06;99104.59;5092684;28;20051;-58
2022/09/07 07:47:20;;;;;;;13.77;2.38;;;;;;;26.70;48.93;99110.16;5112167;28;20036;-60
2022/09/07 07:49:45;;;;;;;10.25;2.20;;;;;;;26.67;48.81;99105.38;5105091;28;20051;-50
2022/09/07 07:52:11;;;;;;;11.38;1.75;;;;;;;26.63;48.68;99099.81;5093625;28;20396;-54
2022/09/07 07:54:37;;;;;;;12.32;3.03;;;;;;;26.66;48.45;99101.78;5099935;28;20046;-50
2022/09/07 07:57:06;;;;;;;7.70;2.33;;;;;;;26.68;48.67;99096.53;5093591;28;20046;-54
2022/09/07 07:59:33;;;;;;;7.20;2.60;;;;;;;26.74;48.22;99094.06;5098135;28;20062;-58
2022/09/07 08:02:03;;;;;;;6.97;2.10;;;;;;;26.79;47.73;99085.16;5096038;28;20075;-50
2022/09/07 08:04:30;;;;;;;6.60;2.30;;;;;;;26.84;47.86;99084.69;5097864;28;20109;-48
2022/09/07 08:06:55;;;;;;;8.27;2.35;;;;;;;26.86;47.60;99085.03;5103170;28;20126;-59
2022/09/07 08:09:21;;;;;;;6.82;2.25;;;;;;;26.88;47.55;99079.81;5100679;28;20045;-53
2022/09/07 08:11:47;;;;;;;5.10;2.00;;;;;;;26.99;47.00;99072.00;5100253;28;20040;-49
2022/09/07 08:14:12;;;;;;;5.70;1.83;;;;;;;26.99;47.30;99076.84;5097311;28;20032;-51
2022/09/07 08:16:37;;;;;;;6.55;1.55;;;;;;;27.08;46.93;99074.34;5100675;28;20077;-65
2022/09/07 08:19:04;;;;;;;5.22;1.52;;;;;;;27.12;46.65;99070.22;5099241;28;20035;-53
2022/09/07 08:21:30;;;;;;;5.07;1.23;;;;;;;27.15;46.56;99065.78;5098078;28;20543;-52
2022/09/07 08:23:55;;;;;;;5.78;1.52;;;;;;;27.17;46.39;99060.53;5103034;28;20044;-48
2022/09/07 08:26:20;;;;;;;3.33;1.45;;;;;;;27.16;46.54;99064.56;5096230;28;20494;-50
2022/09/07 08:28:47;;;;;;;3.97;1.40;;;;;;;27.21;46.35;99075.28;5091213;28;20071;-63
2022/09/07 08:31:14;;;;;;;2.63;1.13;;;;;;;27.14;45.33;99067.78;5095024;28;20044;-50
2022/09/07 08:33:40;;;;;;;5.95;1.20;;;;;;;27.08;47.15;99061.09;5100140;28;20124;-61
2022/09/07 08:36:19;;;;;;;4.93;1.17;;;;;;;27.01;47.73;99061.16;5095037;28;20071;-64
2022/09/07 08:38:45;;;;;;;3.83;1.30;;;;;;;27.10;47.40;99061.44;5090227;28;20047;-64
2022/09/07 08:41:45;;;;;;;5.97;2.28;;;;;;;27.12;47.07;99059.00;5092352;28;20043;-68
2022/09/07 08:44:17;;;;;;;5.22;1.48;;;;;;;27.09;46.78;99070.28;5091011;28;20068;-63
2022/09/07 08:46:49;;;;;;;;;;;;;;;27.01;47.74;99063.19;5098795;28;20032;-65
2022/09/07 08:49:26;;;;;;;7.13;1.20;;;;;;;27.00;47.58;99059.56;5093884;28;19919;-65
2022/09/07 08:52:02;;;;;;;2.60;1.10;;;;;;;27.08;46.41;99052.66;5093972;28;20047;-62
2022/09/07 08:54:28;;;;;;;2.17;1.10;;;;;;;27.02;47.06;99045.13;5091955;28;20039;-62
2022/09/07 08:56:56;;;;;;;3.10;1.13;;;;;;;26.91;47.70;99045.28;5096004;28;20097;-52
2022/09/07 08:59:45;;;;;;;2.83;1.13;;;;;;;26.92;47.61;99046.06;5091808;28;20040;-64
2022/09/07 09:02:15;;;;;;;2.72;0.93;;;;;;;27.06;47.14;99043.06;5101862;28;20456;-51
2022/09/07 09:04:44;;;;;;;3.50;1.10;;;;;;;27.12;45.53;99044.97;5092665;28;20048;-48
2022/09/07 09:07:17;;;;;;;1.90;1.00;;;;;;;27.02;47.14;99037.50;5093963;28;20062;-60
2022/09/07 09:10:01;;;;;;;1.58;1.00;;;;;;;26.93;47.32;99037.22;5096046;28;20570;-63
2022/09/07 09:12:39;;;;;;;2.22;0.70;;;;;;;27.04;47.11;99023.03;5100397;28;20447;-63
2022/09/07 09:15:29;;;;;;;3.75;0.80;;;;;;;27.07;46.60;99013.75;5100314;28;20096;-58
2022/09/07 09:18:23;;;;;;;2.28;0.85;;;;;;;27.00;47.17;99006.22;5092854;28;20031;-62
2022/09/07 09:20:52;;;;;;;1.30;0.77;;;;;;;27.02;47.11;98998.19;5096148;28;20043;-62
2022/09/07 09:23:22;;;;;;;1.00;0.70;;;;;;;27.10;46.29;98998.88;5093171;28;20044;-52
2022/09/07 09:26:22;;;;;;;1.88;0.70;;;;;;;27.02;46.91;99003.00;5095998;28;20122;-63
2022/09/07 09:28:47;;;;;;;1.48;0.68;;;;;;;27.02;46.98;98997.41;5047479;28;20054;-64
2022/09/07 09:31:26;;;;;;;3.22;1.05;;;;;;;27.04;46.79;98998.56;5101411;28;20051;-48
2022/09/07 09:34:04;;;;;;;2.88;0.70;;;;;;;27.12;45.60;99002.06;5098110;28;20452;-48
2022/09/07 09:36:33;;;;;;;1.98;0.70;;;;;;;27.03;46.41;98998.97;5094937;28;20036;-65
2022/09/07 09:38:59;;;;;;;3.65;0.90;;;;;;;27.06;46.37;98998.13;5099366;28;20516;-48
2022/09/07 09:41:35;;;;;;;2.88;0.90;;;;;;;27.14;45.41;98996.78;5115387;28;20054;-62
2022/09/07 09:44:02;;;;;;;1.95;0.68;;;;;;;27.07;46.19;98994.91;5124285;28;20047;-48
2022/09/07 09:46:32;;;;;;;1.98;0.60;;;;;;;27.01;46.80;98993.00;5114892;28;20043;-48
2022/09/07 09:49:27;;;;;;;3.22;0.95;;;;;;;27.07;46.52;98983.66;5113340;28;20106;-61
2022/09/07 09:51:55;;;;;;;1.73;0.70;;;;;;;27.13;45.98;98981.16;5109640;27;20102;-63
2022/09/07 09:54:32;;;;;;;1.48;0.68;;;;;;;27.15;46.24;98985.16;5112350;28;20046;-62
2022/09/07 09:56:58;;;;;;;4.55;0.90;;;;;;;27.14;46.17;98977.94;5114831;27;20043;-62
2022/09/07 09:59:27;;;;;;;3.50;0.90;;;;;;;27.13;44.33;98979.16;5122064;27;20043;-62
2022/09/07 10:01:53;;;;;;;2.15;0.70;;;;;;;27.20;45.08;98969.81;5126394;27;20075;-58
2022/09/07 10:04:24;;;;;;;2.03;0.73;;;;;;;27.20;44.37;98972.63;5113775;27;20618;-50
2022/09/07 10:07:15;;;;;;;5.63;2.40;;;;;;;27.08;43.97;98968.44;5119703;28;20103;-62
2022/09/07 10:09:49;;;;;;;6.78;2.50;;;;;;;27.05;45.17;98960.84;5120236;27;20127;-50
2022/09/07 10:12:34;;;;;;;3.58;2.10;;;;;;;27.08;45.08;98951.59;5112950;28;20047;-61
2022/09/07 10:15:02;;;;;;;4.28;2.33;;;;;;;27.19;44.76;98950.59;5115759;27;21164;-62
2022/09/07 10:17:31;;;;;;;4.28;1.50;;;;;;;27.15;43.79;98940.22;5116254;28;20043;-53
2022/09/07 10:20:15;;;;;;;2.70;1.42;;;;;;;26.97;43.76;98931.31;5109530;28;20043;-54
2022/09/07 10:22:55;;;;;;;3.15;1.38;;;;;;;26.94;45.43;98931.38;5112509;27;20112;-54
2022/09/07 10:25:44;;;;;;;7.30;1.80;;;;;;;26.99;45.69;98933.69;5114108;28;20039;-47
2022/09/07 10:28:12;;;;;;;3.95;1.50;;;;;;;27.06;45.34;98925.16;5114541;28;20772;-48
2022/09/07 10:30:53;;;;;;;3.00;1.35;;;;;;;27.11;45.02;98922.66;5117068;28;20051;-61
2022/09/07 10:33:55;;;;;;;3.13;1.20;;;;;;;27.05;44.63;98926.38;5118316;28;20058;-61
2022/09/07 10:36:43;;;;;;;4.33;1.23;;;;;;;26.96;45.32;98914.91;5119654;27;20044;-47
2022/09/07 10:39:17;;;;;;;4.43;1.40;;;;;;;27.02;44.73;98910.38;5121818;27;20146;-48
2022/09/07 10:41:51;;;;;;;3.65;1.30;;;;;;;27.09;43.63;98904.66;5121623;28;20455;-47
2022/09/07 10:44:40;;;;;;;3.35;1.20;;;;;;;26.96;45.17;98906.47;5119381;27;20039;-60
2022/09/07 10:47:27;;;;;;;1.98;1.10;;;;;;;26.95;44.92;98896.47;5117587;28;20032;-48
2022/09/07 10:50:00;;;;;;;1.45;0.80;;;;;;;27.05;44.61;98879.44;5118047;28;20644;-48
2022/09/07 10:53:13;;;;;;;4.40;1.10;;;;;;;27.04;44.12;98865.81;5115117;27;20043;-49
2022/09/07 10:55:41;;;;;;;1.88;0.90;;;;;;;26.92;45.03;98861.63;5021433;28;20545;-61
2022/09/07 10:58:22;;;;;;;1.85;1.10;;;;;;;27.00;44.71;98862.28;5017018;28;20057;-61
2022/09/07 11:01:06;;;;;;;1.45;0.80;;;;;;;27.12;44.03;98858.88;5020126;28;20137;-61
2022/09/07 11:03:47;;;;;;;1.88;0.90;;;;;;;27.03;43.78;98844.59;5022556;28;20045;-48
2022/09/07 11:06:20;;;;;;;1.60;0.93;;;;;;;26.91;44.66;98836.81;5024647;28;20088;-49
2022/09/07 11:09:31;;;;;;;1.33;0.80;;;;;;;27.02;44.05;98845.81;5022119;28;20053;-48
2022/09/07 11:12:02;;;;;;;1.27;0.70;;;;;;;27.16;43.79;98834.34;5024849;28;20041;-48
2022/09/07 11:14:35;;;;;;;1.45;0.70;;;;;;;27.19;42.86;98830.66;5015535;28;20053;-61
2022/09/07 11:17:07;;;;;;;1.70;0.85;;;;;;;27.05;44.17;98828.13;5026198;28;20489;-61
2022/09/07 11:19:57;;;;;;;1.38;0.90;;;;;;;26.98;44.26;98803.78;5019409;28;20057;-48
2022/09/07 11:22:35;;;;;;;1.92;0.80;;;;;;;27.12;44.07;98813.94;5022894;28;20128;-61
2022/09/07 11:25:09;;;;;;;1.00;0.60;;;;;;;27.18;43.30;98809.41;5021876;28;20049;-48
2022/09/07 11:27:46;;;;;;;1.50;0.70;;;;;;;26.97;44.99;98795.78;5020297;28;20045;-61
2022/09/07 11:30:20;;;;;;;1.52;0.80;;;;;;;26.97;44.68;98802.19;5102169;28;20066;-49
2022/09/07 11:33:01;;;;;;;3.55;0.73;;;;;;;27.07;44.35;98789.19;5118000;28;20051;-56
2022/09/07 11:35:54;;;;;;;1.50;0.70;;;;;;;27.22;44.56;98778.44;5124753;27;20039;-64
2022/09/07 11:38:27;;;;;;;1.40;0.60;;;;;;;27.35;44.41;98777.34;5123688;27;20051;-55
2022/09/07 11:41:05;;;;;;;2.72;0.85;;;;;;;27.46;44.58;98776.31;5123581;28;20047;-54
2022/09/07 11:43:40;;;;;;;1.55;0.60;;;;;;;27.50;44.73;98763.75;5116039;28;20061;-51
2022/09/07 11:46:21;;;;;;;1.45;0.60;;;;;;;27.61;44.60;98753.09;5118714;27;20040;-51
2022/09/07 11:48:56;;;;;;;2.05;0.70;;;;;;;27.69;44.42;98748.91;5125321;28;20554;-51
2022/09/07 11:51:35;;;;;;;1.13;0.63;;;;;;;27.75;44.37;98742.75;5120336;28;20051;-53